WetterOnline ( https://www.wetteronline.de )

Wetter aktuell Regensburg

Aktuelles Wetter: Regensburg/Oberhub (371m)

6-stündlich | Neueste Meldungen
Ortszeit Temperatur Wetter
So, 29.05. 8:00 8.0° C wolkig
So, 29.05. 2:00 5.5° C wolkig
Sa, 28.05. 20:00 14.5° C fast wolkenlos
Sa, 28.05. 14:00 15.1° C bewölkt
Sa, 28.05. 8:00 10.6° C leicht bewölkt
Sa, 28.05. 2:00 12.5° C bewölkt
Fr, 27.05. 20:00 14.5° C Sprühregen
Fr, 27.05. 14:00 19.4° C bewölkt
Ortszeit Temperatur Wetter
So, 29.05. 11:30 14.1° C leichter Regen
So, 29.05. 11:20 14.1° C leichter Regen
So, 29.05. 11:10 14.4° C bedeckt
So, 29.05. 11:00 15.7° C bedeckt
So, 29.05. 10:50 15.7° C bedeckt
So, 29.05. 10:40 15.9° C bedeckt
So, 29.05. 10:30 14.1° C bedeckt
So, 29.05. 10:00 11.7° C bedeckt
So, 29.05. 9:30 10.2° C bedeckt
So, 29.05. 9:00 9.1° C bedeckt
So, 29.05. 8:30 9.1° C bewölkt
Ortszeit Relative Feuchte Sichtweite
So, 29.05. 8:00 77% 50 km
So, 29.05. 2:00 89% 23 km
Sa, 28.05. 20:00 46% >70 km
Sa, 28.05. 14:00 48% >70 km
Sa, 28.05. 8:00 68% 65 km
Sa, 28.05. 2:00 82% >70 km
Fr, 27.05. 20:00 61% 65 km
Fr, 27.05. 14:00 54% 65 km
Ortszeit Relative Feuchte Sichtweite
So, 29.05. 11:30 52% >70 km
So, 29.05. 11:20 52% -
So, 29.05. 11:10 51% -
So, 29.05. 11:00 47% >70 km
So, 29.05. 10:50 47% -
So, 29.05. 10:40 50% -
So, 29.05. 10:30 61% 50 km
So, 29.05. 10:00 69% >70 km
So, 29.05. 9:30 76% >70 km
So, 29.05. 9:00 73% >70 km
So, 29.05. 8:30 77% >70 km
Ortszeit Niederschlagsmenge Niederschlagsart
So, 29.05. 8:00 0.0 l/m2 in 12 Std. -
So, 29.05. 2:00 0.0 l/m2 in 6 Std. -
Sa, 28.05. 20:00 0.0 l/m2 in 12 Std. -
Sa, 28.05. 14:00 0.0 l/m2 in 6 Std. -
Sa, 28.05. 8:00 0.1 l/m2 in 12 Std. -
Sa, 28.05. 2:00 0.1 l/m2 in 6 Std. Regen
Fr, 27.05. 20:00 0.1 l/m2 in 12 Std. Regen
Fr, 27.05. 14:00 0.0 l/m2 in 6 Std. -
Ortszeit Niederschlagsmenge Niederschlagsart
So, 29.05. 11:30 0.1 l/m2 in 1 Std. -
So, 29.05. 11:20 keine Meldung -
So, 29.05. 11:10 keine Meldung -
So, 29.05. 11:00 0.0 l/m2 in 1 Std. Regen
So, 29.05. 10:50 keine Meldung -
So, 29.05. 10:40 keine Meldung -
So, 29.05. 10:30 0.0 l/m2 in 1 Std. -
So, 29.05. 10:00 0.1 l/m2 in 1 Std. Regen
So, 29.05. 9:30 0.1 l/m2 in 1 Std. Schneeregen
So, 29.05. 9:00 0.0 l/m2 in 1 Std. -
So, 29.05. 8:30 0.0 l/m2 in 1 Std. -
Ortszeit Stärke Spitze Richtung
km/h Bft. km/h Grad Sektor
So, 29.05. 8:00 7 2 19 350° N
So, 29.05. 2:00 7 2 14 360° N
Sa, 28.05. 20:00 6 1 41 310° NW
Sa, 28.05. 14:00 9 2 35 300° NW
Sa, 28.05. 8:00 9 2 22 290° W
Sa, 28.05. 2:00 11 2 39 270° W
Fr, 27.05. 20:00 13 3 48 290° W
Fr, 27.05. 14:00 26 4 46 270° W
Ortszeit Stärke Spitze Richtung
km/h Bft. km/h Grad Sektor
So, 29.05. 11:30 7 2 14 20° N
So, 29.05. 11:20 7 2 - 20° N
So, 29.05. 11:10 6 1 - 20° N
So, 29.05. 11:00 6 1 13 20° N
So, 29.05. 10:50 6 1 - 20° N
So, 29.05. 10:40 6 1 - 20° N
So, 29.05. 10:30 6 1 13 360° N
So, 29.05. 10:00 4 1 11 10° N
So, 29.05. 9:30 6 1 9 350° N
So, 29.05. 9:00 6 1 15 340° N
So, 29.05. 8:30 7 2 14 340° N
Ortszeit Untergrenze Bedeckung Gattung
total tief tief mittel hoch
So, 29.05. 8:00 1800 m 8/8 1/8 - - -
So, 29.05. 2:00 2400 m 6/8 5/8 - - -
Sa, 28.05. 20:00 2700 m 1/8 1/8 - - -
Sa, 28.05. 14:00 1500 m 7/8 7/8 - - -
Sa, 28.05. 8:00 8100 m 7/8 0/8 - - -
Sa, 28.05. 2:00 2700 m 7/8 7/8 - - -
Fr, 27.05. 20:00 840 m 8/8 8/8 - - -
Fr, 27.05. 14:00 1080 m 7/8 7/8 - - -
Ortszeit Bedeckungsgrad in Achtel und Wolkenuntergrenze
So, 29.05. 11:30 2(1440m) 7(1800m) 8(2400m)
So, 29.05. 11:20 2(1440m) 7(1800m) 8(2400m)
So, 29.05. 11:10 8
So, 29.05. 11:00 8(2100m) 8(3300m)
So, 29.05. 10:50 8(2100m) 8(3300m)
So, 29.05. 10:40 8
So, 29.05. 10:30 8(2100m) 8(3300m)
So, 29.05. 10:00 1(1800m) 8(2400m) 8(3600m)
So, 29.05. 9:30 1(1020m) 6(2100m) 8(2400m)
So, 29.05. 9:00 7(1800m) 8(2100m) 8(2700m)
So, 29.05. 8:30 3(2100m) 7(2700m) 8(3300m)
Ortszeit Luftdruck NN (hPa) Tendenz (hPa in 3 Std.)
So, 29.05. 8:00 1013 - 1,0
So, 29.05. 2:00 1016 - 1,3
Sa, 28.05. 20:00 1016 - 0,6
Sa, 28.05. 14:00 1018 - 1,0
Sa, 28.05. 8:00 1020 + 1,2
Sa, 28.05. 2:00 1019 - 0,7
Fr, 27.05. 20:00 1019 + 0,5
Fr, 27.05. 14:00 1019 - 1,1
Ortszeit Luftdruck NN (hPa) Tendenz (hPa in 3 Std.)
So, 29.05. 11:30 1012 - 0,4
So, 29.05. 11:20 1012 keine Meldung
So, 29.05. 11:10 1012 keine Meldung
So, 29.05. 11:00 1012 - 0,3
So, 29.05. 10:50 1012 keine Meldung
So, 29.05. 10:40 1012 keine Meldung
So, 29.05. 10:30 1012 - 0,2
So, 29.05. 10:00 1013 - 0,1
So, 29.05. 9:30 1013 - 0,4
So, 29.05. 9:00 1013 - 0,2
So, 29.05. 8:30 1013 - 0,7
Ortszeit Schneehöhe (cm)
So, 29.05. 8:00 0
So, 29.05. 2:00 0
Sa, 28.05. 20:00 0
Sa, 28.05. 14:00 0
Sa, 28.05. 8:00 0
Sa, 28.05. 2:00 0
Fr, 27.05. 20:00 0
Fr, 27.05. 14:00 0
Ortszeit Schneehöhe (cm)
So, 29.05. 11:30 0
So, 29.05. 11:20 0
So, 29.05. 11:10 0
So, 29.05. 11:00 0
So, 29.05. 10:50 0
So, 29.05. 10:40 0
So, 29.05. 10:30 0
So, 29.05. 10:00 0
So, 29.05. 9:30 0
So, 29.05. 9:00 0
So, 29.05. 8:30 0
Link zu dieser Seite / Seite empfehlen

Das Wetter in ...